Terminal Aerodrome Forecast
Issued by NWS

Home | Current Version | Previous Version | Graphics & Text | Print | Product List | Glossary On
Versions: 1 2 3 4 5 6 7 8 9 10 11 12 13 14 15 16 17 18 19 20 21 22 23 24 25 26 27 28 29 30 31 32
000
FTUS45 KGGW 292144 AAB
TAFOLF
TAF AMD
KOLF 292144Z 2922/3018 VRB06KT 2SM FU BKN030
      TEMPO 2922/2924 3/4SM FU VV019
     FM300900 VRB03KT 4SM -TSRA FU BKN040CB
     FM301500 32011KT 6SM -TSRA FU BKN050CB=

USA.gov is the U.S. government's official web portal to all federal, state and local government web resources and services.